createdAt,value
2019-02-16T00:01:46.006Z,99.90
2019-02-16T00:04:16.991Z,99.90
2019-02-16T00:06:47.904Z,99.90
2019-02-16T00:09:18.516Z,99.90
2019-02-16T00:11:49.062Z,99.90
2019-02-16T00:14:19.602Z,99.90
2019-02-16T00:16:50.198Z,99.90
2019-02-16T00:19:20.767Z,99.90
2019-02-16T00:21:51.696Z,10.60
2019-02-16T00:24:22.274Z,99.90
2019-02-16T00:26:52.918Z,99.90
2019-02-16T00:29:23.574Z,1.00
2019-02-16T00:31:54.123Z,99.90
2019-02-16T00:34:24.732Z,99.90
2019-02-16T00:36:55.269Z,30.70
2019-02-16T00:39:25.877Z,99.90
2019-02-16T00:41:56.424Z,33.00
2019-02-16T00:44:27.059Z,1.00
2019-02-16T00:46:57.604Z,1.00
2019-02-16T00:49:28.204Z,99.90
2019-02-16T00:51:58.757Z,99.90
2019-02-16T00:54:29.412Z,99.90
2019-02-16T00:56:59.963Z,99.90
2019-02-16T00:59:30.635Z,99.90
2019-02-16T01:02:01.180Z,1.00
2019-02-16T01:04:31.763Z,1.00
2019-02-16T01:07:02.678Z,1.00
2019-02-16T01:09:33.259Z,1.00
2019-02-16T01:12:03.819Z,1.00
2019-02-16T01:14:35.108Z,1.00
2019-02-16T01:17:06.021Z,1.00
2019-02-16T01:19:36.830Z,1.00
2019-02-16T01:22:07.358Z,1.00
2019-02-16T01:24:37.907Z,16.80
2019-02-16T01:27:08.480Z,91.30
2019-02-16T01:29:39.105Z,99.90
2019-02-16T01:32:09.685Z,99.90
2019-02-16T01:34:40.535Z,99.90
2019-02-16T01:37:11.140Z,99.90
2019-02-16T01:39:42.040Z,99.90
2019-02-16T01:42:13.572Z,57.20
2019-02-16T01:44:44.413Z,1.00
2019-02-16T01:47:15.375Z,1.00
2019-02-16T01:49:45.915Z,1.00
2019-02-16T01:52:17.325Z,1.00
2019-02-16T01:54:48.077Z,1.00
2019-02-16T01:57:19.061Z,1.00
2019-02-16T01:59:49.614Z,99.90
2019-02-16T02:02:20.206Z,99.90
2019-02-16T02:04:51.083Z,99.90
2019-02-16T02:07:21.664Z,99.90
2019-02-16T02:09:52.225Z,99.90
2019-02-16T02:12:23.001Z,99.90
2019-02-16T02:14:53.902Z,99.90
2019-02-16T02:17:24.491Z,99.90
2019-02-16T02:19:55.095Z,92.70
2019-02-16T02:22:25.957Z,99.90
2019-02-16T02:24:56.577Z,99.90
2019-02-16T02:27:27.143Z,1.00
2019-02-16T02:29:58.045Z,1.00
2019-02-16T02:32:28.619Z,1.00
2019-02-16T02:34:59.189Z,1.00
2019-02-16T02:37:29.748Z,1.00
2019-02-16T02:40:00.424Z,99.90
2019-02-16T02:42:31.008Z,62.10
2019-02-16T02:45:01.612Z,99.90
2019-02-16T02:47:32.176Z,99.90
2019-02-16T02:50:02.748Z,1.00
2019-02-16T02:52:33.721Z,1.00
2019-02-16T02:55:04.289Z,99.90
2019-02-16T02:57:34.901Z,1.00
2019-02-16T03:00:06.596Z,1.00
2019-02-16T03:02:37.163Z,1.00
2019-02-16T03:05:09.399Z,99.90
2019-02-16T03:07:39.963Z,99.90
2019-02-16T03:10:10.539Z,99.90
2019-02-16T03:12:41.112Z,3.50
2019-02-16T03:15:11.669Z,1.00
2019-02-16T03:17:42.357Z,99.90
2019-02-16T03:20:13.323Z,99.90
2019-02-16T03:23:27.407Z,99.90
2019-02-16T03:26:43.010Z,1.00
2019-02-16T03:30:01.265Z,99.90
2019-02-16T03:32:59.587Z,99.90
2019-02-16T03:36:44.157Z,99.90
2019-02-16T03:39:22.755Z,99.90
2019-02-16T03:41:53.293Z,1.00
2019-02-16T03:44:23.945Z,1.00
2019-02-16T03:46:55.169Z,1.00
2019-02-16T03:49:25.799Z,59.20
2019-02-16T03:51:56.327Z,99.90
2019-02-16T03:54:27.309Z,14.40
2019-02-16T03:56:57.887Z,99.90
2019-02-16T03:59:28.538Z,99.90
2019-02-16T04:01:59.119Z,15.10
2019-02-16T04:04:29.716Z,1.00
2019-02-16T04:07:00.281Z,65.10
2019-02-16T04:09:30.896Z,1.00
2019-02-16T04:12:01.742Z,1.00
2019-02-16T04:14:32.307Z,22.10
2019-02-16T04:17:02.855Z,67.20
2019-02-16T04:19:33.484Z,99.90
2019-02-16T04:22:04.040Z,99.90
2019-02-16T04:24:34.893Z,99.90
2019-02-16T04:27:05.457Z,99.90
2019-02-16T04:29:36.103Z,99.90
2019-02-16T04:32:06.783Z,99.90
2019-02-16T04:34:37.333Z,99.90
2019-02-16T04:37:07.910Z,99.90
2019-02-16T04:39:38.454Z,99.90
2019-02-16T04:42:09.062Z,99.90
2019-02-16T04:44:39.612Z,99.90
2019-02-16T04:47:10.216Z,99.90
2019-02-16T04:49:40.796Z,99.90
2019-02-16T04:52:11.392Z,99.90
2019-02-16T04:54:41.942Z,99.90
2019-02-16T04:57:12.619Z,99.90
2019-02-16T04:59:43.198Z,99.90
2019-02-16T05:02:13.813Z,99.90
2019-02-16T05:04:44.365Z,99.90
2019-02-16T05:07:14.958Z,99.90
2019-02-16T05:09:45.673Z,99.90
2019-02-16T05:12:16.320Z,99.90
2019-02-16T05:14:47.547Z,99.90
2019-02-16T05:17:18.210Z,99.90
2019-02-16T05:19:48.876Z,99.90
2019-02-16T05:22:19.787Z,99.90
2019-02-16T05:24:50.335Z,99.90
2019-02-16T05:27:20.928Z,99.90
2019-02-16T05:29:52.225Z,99.90
2019-02-16T05:32:22.818Z,99.90
2019-02-16T05:34:53.374Z,99.90
2019-02-16T05:37:23.972Z,99.90
2019-02-16T05:39:54.524Z,99.90
2019-02-16T05:42:25.127Z,99.90
2019-02-16T05:44:55.667Z,99.90
2019-02-16T05:47:26.295Z,99.90
2019-02-16T05:49:56.865Z,99.90
2019-02-16T05:52:27.404Z,99.90
2019-02-16T05:54:57.965Z,99.90
2019-02-16T05:57:28.904Z,99.90
2019-02-16T05:59:59.487Z,99.90
2019-02-16T06:02:30.022Z,99.90
2019-02-16T06:05:00.609Z,99.90
2019-02-16T06:07:31.165Z,99.90
2019-02-16T06:10:01.754Z,99.90
2019-02-16T06:12:32.294Z,99.90
2019-02-16T06:15:02.935Z,99.90
2019-02-16T06:17:33.512Z,99.90
2019-02-16T06:20:04.449Z,99.90
2019-02-16T06:22:35.114Z,99.90
2019-02-16T06:25:06.023Z,99.90
2019-02-16T06:27:36.947Z,99.90
2019-02-16T06:30:08.347Z,99.90
2019-02-16T06:32:38.921Z,99.90
2019-02-16T06:35:27.460Z,99.90
2019-02-16T06:37:58.028Z,99.90
2019-02-16T06:40:29.031Z,99.90
2019-02-16T06:42:59.598Z,99.90
2019-02-16T06:45:30.265Z,99.90
2019-02-16T06:48:00.817Z,99.90
2019-02-16T06:50:37.001Z,99.90
2019-02-16T06:53:12.564Z,99.90
2019-02-16T06:55:44.684Z,99.90
2019-02-16T06:58:15.527Z,99.90
2019-02-16T07:00:46.429Z,99.90
2019-02-16T07:03:16.992Z,99.90
2019-02-16T07:05:47.949Z,99.90
2019-02-16T07:08:18.483Z,99.90
2019-02-16T07:10:49.167Z,99.90
2019-02-16T07:13:19.725Z,99.90
2019-02-16T07:16:07.962Z,99.90
2019-02-16T07:18:50.058Z,99.90
2019-02-16T07:21:20.638Z,99.90
2019-02-16T07:23:51.312Z,99.90
2019-02-16T07:26:21.898Z,99.90
2019-02-16T07:28:53.018Z,99.90
2019-02-16T07:31:23.599Z,99.90
2019-02-16T07:33:54.826Z,99.90
2019-02-16T07:36:25.406Z,99.90
2019-02-16T07:38:55.989Z,99.90
2019-02-16T07:41:26.548Z,99.90
2019-02-16T07:44:19.730Z,99.90
2019-02-16T07:47:01.650Z,99.90
2019-02-16T07:49:40.968Z,99.90
2019-02-16T07:52:18.674Z,99.90
2019-02-16T07:55:11.105Z,99.90
2019-02-16T07:58:00.959Z,99.90
2019-02-16T08:00:50.843Z,99.90
2019-02-16T08:03:29.498Z,99.90
2019-02-16T08:06:22.001Z,99.90
2019-02-16T08:09:24.265Z,99.90
2019-02-16T08:12:06.355Z,99.90
2019-02-16T08:14:54.481Z,99.90
2019-02-16T08:17:40.887Z,99.90
2019-02-16T08:20:27.074Z,99.90
2019-02-16T08:23:19.862Z,99.90
2019-02-16T08:26:03.539Z,99.90
2019-02-16T08:29:02.548Z,99.90
2019-02-16T08:31:39.712Z,30.10
2019-02-16T08:34:22.437Z,1.00
2019-02-16T08:37:03.158Z,99.90
2019-02-16T08:39:52.707Z,99.90
2019-02-16T08:43:00.507Z,99.90
2019-02-16T08:45:47.273Z,99.90
2019-02-16T08:48:35.901Z,99.90
2019-02-16T08:51:16.074Z,99.90
2019-02-16T08:54:05.771Z,99.90
2019-02-16T08:56:55.275Z,99.90
2019-02-16T08:59:42.465Z,1.00
2019-02-16T09:02:22.681Z,63.10
2019-02-16T09:05:08.606Z,1.00
2019-02-16T09:07:54.400Z,1.00
2019-02-16T09:10:48.048Z,99.90
2019-02-16T09:13:43.287Z,99.90
2019-02-16T09:16:37.945Z,99.90
2019-02-16T09:19:21.090Z,91.80
2019-02-16T09:22:07.180Z,1.00
2019-02-16T09:24:49.604Z,1.00
2019-02-16T09:27:45.251Z,1.00
2019-02-16T09:30:33.682Z,1.00
2019-02-16T09:33:21.991Z,1.00
2019-02-16T09:36:01.024Z,1.00
2019-02-16T09:38:59.824Z,99.90
2019-02-16T09:41:35.576Z,99.90
2019-02-16T09:44:27.838Z,99.90
2019-02-16T09:47:23.438Z,39.50
2019-02-16T09:50:31.336Z,1.00
2019-02-16T09:53:09.833Z,1.00
2019-02-16T09:55:48.342Z,1.00
2019-02-16T09:58:36.563Z,1.00
2019-02-16T10:01:26.046Z,1.00
2019-02-16T10:04:15.891Z,1.00
2019-02-16T10:07:05.389Z,3.50
2019-02-16T10:09:54.283Z,1.00
2019-02-16T10:12:40.900Z,1.00
2019-02-16T10:15:25.379Z,1.00
2019-02-16T10:18:08.872Z,1.00
2019-02-16T10:20:53.654Z,1.00
2019-02-16T10:23:42.122Z,1.00
2019-02-16T10:26:23.694Z,1.00
2019-02-16T10:29:28.634Z,1.00
2019-02-16T10:32:16.254Z,1.00
2019-02-16T10:35:20.964Z,1.00
2019-02-16T10:38:07.311Z,1.00
2019-02-16T10:41:08.905Z,1.00
2019-02-16T10:44:01.161Z,1.00
2019-02-16T10:46:46.449Z,1.00
2019-02-16T10:49:41.772Z,99.90
2019-02-16T10:52:36.354Z,99.90
2019-02-16T10:55:25.340Z,99.90
2019-02-16T10:58:03.180Z,99.90
2019-02-16T11:00:56.465Z,99.90
2019-02-16T11:03:43.290Z,99.90
2019-02-16T11:06:28.655Z,99.90
2019-02-16T11:09:21.089Z,99.90
2019-02-16T11:12:19.417Z,99.90
2019-02-16T11:15:13.449Z,99.90
2019-02-16T11:18:00.170Z,99.90
2019-02-16T11:20:49.535Z,99.90
2019-02-16T11:23:42.376Z,1.00
2019-02-16T11:26:35.056Z,1.00
2019-02-16T11:29:23.549Z,1.00
2019-02-16T11:32:16.194Z,1.00
2019-02-16T11:35:10.266Z,8.20
2019-02-16T11:37:51.596Z,28.40
2019-02-16T11:40:38.906Z,51.60
2019-02-16T11:43:43.853Z,26.40
2019-02-16T11:46:31.980Z,40.10
2019-02-16T11:49:24.402Z,59.90
2019-02-16T11:52:17.689Z,89.30
2019-02-16T11:55:13.326Z,89.80
2019-02-16T11:58:02.330Z,88.80
2019-02-16T12:01:00.881Z,91.50
2019-02-16T12:03:46.808Z,88.70
2019-02-16T12:06:36.975Z,92.80
2019-02-16T12:09:22.332Z,91.80
2019-02-16T12:12:21.227Z,89.90
2019-02-16T12:15:09.680Z,89.70
2019-02-16T12:17:59.211Z,90.20
2019-02-16T12:20:48.093Z,91.30
2019-02-16T12:23:25.682Z,93.60
2019-02-16T12:26:14.174Z,92.70
2019-02-16T12:29:02.341Z,93.00
2019-02-16T12:31:47.949Z,92.80
2019-02-16T12:34:26.680Z,92.90
2019-02-16T12:37:25.175Z,95.80
2019-02-16T12:40:14.731Z,95.60
2019-02-16T12:43:04.236Z,96.50
2019-02-16T12:45:59.933Z,95.90
2019-02-16T12:48:52.534Z,96.00
2019-02-16T12:51:48.102Z,95.50
2019-02-16T12:54:37.625Z,95.50
2019-02-16T12:57:16.790Z,95.10
2019-02-16T13:00:18.830Z,94.80
2019-02-16T13:03:06.933Z,94.60
2019-02-16T13:05:49.718Z,93.80
2019-02-16T13:08:41.169Z,94.10
2019-02-16T13:11:23.769Z,94.20
2019-02-16T13:14:13.256Z,95.30
2019-02-16T13:17:09.261Z,95.40
2019-02-16T13:19:49.088Z,94.50
2019-02-16T13:22:38.624Z,95.00
2019-02-16T13:25:24.455Z,94.30
2019-02-16T13:28:12.733Z,94.30
2019-02-16T13:31:11.518Z,95.10
2019-02-16T13:34:16.231Z,94.50
2019-02-16T13:37:05.865Z,94.80
2019-02-16T13:39:58.122Z,93.40
2019-02-16T13:42:37.481Z,92.50
2019-02-16T13:45:36.591Z,93.50
2019-02-16T13:48:20.611Z,92.60
2019-02-16T13:51:12.872Z,92.60
2019-02-16T13:54:01.442Z,92.80
2019-02-16T13:56:44.431Z,92.50
2019-02-16T13:59:31.441Z,93.10
2019-02-16T14:02:19.655Z,92.00
2019-02-16T14:04:58.190Z,91.90
2019-02-16T14:07:50.674Z,93.20
2019-02-16T14:10:29.770Z,92.20
2019-02-16T14:13:30.414Z,92.20
2019-02-16T14:16:06.257Z,92.30
2019-02-16T14:18:36.800Z,91.90
2019-02-16T14:21:07.441Z,92.10
2019-02-16T14:23:37.979Z,92.00
2019-02-16T14:26:09.114Z,92.30
2019-02-16T14:28:39.694Z,92.30
2019-02-16T14:31:11.265Z,91.90
2019-02-16T14:33:41.824Z,92.50
2019-02-16T14:36:12.469Z,92.00
2019-02-16T14:39:02.916Z,93.40
2019-02-16T14:41:33.488Z,93.30
2019-02-16T14:44:04.040Z,93.70
2019-02-16T14:46:34.658Z,95.20
2019-02-16T14:49:05.664Z,94.20
2019-02-16T14:51:36.205Z,94.30
2019-02-16T14:54:07.178Z,93.40
2019-02-16T14:56:37.736Z,94.00
2019-02-16T14:59:08.659Z,95.70
2019-02-16T15:01:40.257Z,94.50
2019-02-16T15:04:11.181Z,95.80
2019-02-16T15:06:41.749Z,96.10
2019-02-16T15:09:12.419Z,96.80
2019-02-16T15:11:43.424Z,98.10
2019-02-16T15:14:14.379Z,95.60
2019-02-16T15:16:45.049Z,96.80
2019-02-16T15:19:15.953Z,96.80
2019-02-16T15:21:46.522Z,97.20
2019-02-16T15:24:17.160Z,97.80
2019-02-16T15:26:47.725Z,97.70
2019-02-16T15:29:18.385Z,97.20
2019-02-16T15:31:48.930Z,96.80
2019-02-16T15:34:19.592Z,97.90
2019-02-16T15:36:50.145Z,98.60
2019-02-16T15:39:20.689Z,98.30
2019-02-16T15:41:51.573Z,99.20
2019-02-16T15:44:22.215Z,99.90
2019-02-16T15:46:52.774Z,99.90
2019-02-16T15:49:23.415Z,99.90
2019-02-16T15:51:54.404Z,99.90
2019-02-16T15:54:24.997Z,99.90
2019-02-16T15:56:55.579Z,99.90
2019-02-16T15:59:34.864Z,99.90
2019-02-16T16:01:58.831Z,99.90
2019-02-16T16:04:29.454Z,99.90
2019-02-16T16:07:00.096Z,99.90
2019-02-16T16:09:39.545Z,99.90
2019-02-16T16:12:20.378Z,99.90
2019-02-16T16:15:09.099Z,99.90
2019-02-16T16:18:14.081Z,99.90
2019-02-16T16:21:09.161Z,99.90
2019-02-16T16:23:48.597Z,99.90
2019-02-16T16:26:38.034Z,99.90
2019-02-16T16:29:27.960Z,99.90
2019-02-16T16:32:08.837Z,99.90
2019-02-16T16:35:04.970Z,99.90
2019-02-16T16:37:40.918Z,99.90
2019-02-16T16:40:27.931Z,99.90
2019-02-16T16:43:20.747Z,99.90
2019-02-16T16:46:15.973Z,99.90
2019-02-16T16:49:14.488Z,99.90
2019-02-16T16:52:05.500Z,99.90
2019-02-16T16:54:50.038Z,99.90
2019-02-16T16:57:29.907Z,99.90
2019-02-16T17:00:30.320Z,99.90
2019-02-16T17:03:38.250Z,99.90
2019-02-16T17:06:39.018Z,99.90
2019-02-16T17:09:37.636Z,99.90
2019-02-16T17:12:18.940Z,99.90
2019-02-16T17:15:17.721Z,99.90
2019-02-16T17:18:00.174Z,99.90
2019-02-16T17:21:00.344Z,99.90
2019-02-16T17:23:49.808Z,99.90
2019-02-16T17:26:38.287Z,99.90
2019-02-16T17:29:46.106Z,99.90
2019-02-16T17:32:39.049Z,99.90
2019-02-16T17:35:37.511Z,99.90
2019-02-16T17:38:29.821Z,99.90
2019-02-16T17:41:18.234Z,99.90
2019-02-16T17:44:26.298Z,99.90
2019-02-16T17:47:12.095Z,99.90
2019-02-16T17:50:00.322Z,99.90
2019-02-16T17:53:08.227Z,99.90
2019-02-16T17:56:00.914Z,99.90
2019-02-16T17:58:36.663Z,99.90
2019-02-16T18:01:41.598Z,99.90
2019-02-16T18:04:37.403Z,99.90
2019-02-16T18:07:20.616Z,99.90
2019-02-16T18:10:15.969Z,99.90
2019-02-16T18:13:04.115Z,99.90
2019-02-16T18:15:52.595Z,99.90
2019-02-16T18:18:32.497Z,99.90
2019-02-16T18:21:40.505Z,99.90
2019-02-16T18:24:32.676Z,99.90
2019-02-16T18:27:13.900Z,99.90
2019-02-16T18:30:00.526Z,99.90
2019-02-16T18:32:52.780Z,99.90
2019-02-16T18:35:51.541Z,99.90
2019-02-16T18:38:36.296Z,99.90
2019-02-16T18:41:28.571Z,99.90
2019-02-16T18:44:16.888Z,99.90
2019-02-16T18:46:55.510Z,99.90
2019-02-16T18:49:45.033Z,99.90
2019-02-16T18:52:34.583Z,99.90
2019-02-16T18:55:33.539Z,99.90
2019-02-16T18:58:35.108Z,99.90
2019-02-16T19:01:40.010Z,99.90
2019-02-16T19:04:29.482Z,99.90
2019-02-16T19:07:22.331Z,99.90
2019-02-16T19:10:10.974Z,99.90
2019-02-16T19:12:50.645Z,99.90
2019-02-16T19:15:38.898Z,99.90
2019-02-16T19:18:37.498Z,99.90
2019-02-16T19:21:27.315Z,99.90
2019-02-16T19:24:19.994Z,99.90
2019-02-16T19:27:05.197Z,99.90
2019-02-16T19:29:53.566Z,99.90
2019-02-16T19:32:33.117Z,99.90
2019-02-16T19:35:22.644Z,99.90
2019-02-16T19:38:12.803Z,99.90
2019-02-16T19:40:58.673Z,99.90
2019-02-16T19:44:03.299Z,99.90
2019-02-16T19:46:47.815Z,99.90
2019-02-16T19:49:36.308Z,99.90
2019-02-16T19:52:37.733Z,99.90
2019-02-16T19:55:31.470Z,99.90
2019-02-16T19:58:27.026Z,99.90
2019-02-16T20:01:05.859Z,99.90
2019-02-16T20:04:07.713Z,99.90
2019-02-16T20:06:46.634Z,99.90
2019-02-16T20:09:42.549Z,99.90
2019-02-16T20:12:30.075Z,99.90
2019-02-16T20:15:14.096Z,99.90
2019-02-16T20:18:08.008Z,99.90
2019-02-16T20:21:15.908Z,99.90
2019-02-16T20:23:57.379Z,99.90
2019-02-16T20:26:47.460Z,99.90
2019-02-16T20:29:36.642Z,99.90
2019-02-16T20:32:26.109Z,99.90
2019-02-16T20:35:14.279Z,99.90
2019-02-16T20:38:16.235Z,99.90
2019-02-16T20:41:04.711Z,99.90
2019-02-16T20:43:57.025Z,99.90
2019-02-16T20:46:33.049Z,99.90
2019-02-16T20:49:31.838Z,99.90
2019-02-16T20:52:13.331Z,99.90
2019-02-16T20:54:52.378Z,99.90
2019-02-16T20:57:48.616Z,99.90
2019-02-16T21:00:44.327Z,99.90
2019-02-16T21:03:28.254Z,99.90
2019-02-16T21:06:11.371Z,99.90
2019-02-16T21:08:48.876Z,99.90
2019-02-16T21:11:30.441Z,99.90
2019-02-16T21:14:32.014Z,99.90
2019-02-16T21:17:14.110Z,99.90
2019-02-16T21:20:22.027Z,99.90
2019-02-16T21:23:27.079Z,99.90
2019-02-16T21:26:14.908Z,99.90
2019-02-16T21:29:07.023Z,99.90
2019-02-16T21:31:55.712Z,99.90
2019-02-16T21:34:54.362Z,99.90
2019-02-16T21:37:47.416Z,99.90
2019-02-16T21:40:30.973Z,99.90
2019-02-16T21:43:26.490Z,99.90
2019-02-16T21:46:15.523Z,99.90
2019-02-16T21:49:01.661Z,99.90
2019-02-16T21:51:45.665Z,99.90
2019-02-16T21:54:22.473Z,99.90
2019-02-16T21:57:21.162Z,99.90
2019-02-16T22:00:29.004Z,99.90
2019-02-16T22:03:10.421Z,1.00
2019-02-16T22:06:12.204Z,99.90
2019-02-16T22:08:56.642Z,99.90
2019-02-16T22:11:36.814Z,99.90
2019-02-16T22:14:07.371Z,93.40
2019-02-16T22:16:38.309Z,99.90
2019-02-16T22:19:08.930Z,99.90
2019-02-16T22:21:39.402Z,78.50
2019-02-16T22:24:09.959Z,99.90
2019-02-16T22:26:40.634Z,6.40
2019-02-16T22:29:11.817Z,99.90
2019-02-16T22:31:42.409Z,99.90
2019-02-16T22:34:13.278Z,1.00
2019-02-16T22:36:43.871Z,1.00
2019-02-16T22:39:14.402Z,1.00
2019-02-16T22:41:45.029Z,1.00
2019-02-16T22:44:15.631Z,1.00
2019-02-16T22:46:46.177Z,1.00
2019-02-16T22:49:17.173Z,1.00
2019-02-16T22:51:48.067Z,55.20
2019-02-16T22:54:18.631Z,62.80
2019-02-16T22:56:49.624Z,52.90
2019-02-16T22:59:20.509Z,34.80
2019-02-16T23:01:51.538Z,27.20
2019-02-16T23:04:22.427Z,1.00
2019-02-16T23:06:53.367Z,1.00
2019-02-16T23:09:27.306Z,79.30
2019-02-16T23:11:58.207Z,90.40
2019-02-16T23:14:29.214Z,80.20
2019-02-16T23:16:59.991Z,58.30
2019-02-16T23:19:30.516Z,99.90
2019-02-16T23:22:01.081Z,99.90
2019-02-16T23:24:31.700Z,99.90
2019-02-16T23:27:02.257Z,99.90
2019-02-16T23:29:33.244Z,99.90
2019-02-16T23:32:04.151Z,99.90
2019-02-16T23:34:35.080Z,99.90
2019-02-16T23:37:06.001Z,99.90
2019-02-16T23:39:36.989Z,99.90
2019-02-16T23:42:07.546Z,99.90
2019-02-16T23:44:38.112Z,99.90
2019-02-16T23:47:08.992Z,99.90
2019-02-16T23:49:39.952Z,99.90
2019-02-16T23:52:10.570Z,99.90
2019-02-16T23:54:41.143Z,99.90
2019-02-16T23:57:11.724Z,99.90
2019-02-16T23:59:42.279Z,99.90
